createdAt,value
2018-04-14T00:00:49.991Z,10.80
2018-04-14T00:03:18.343Z,10.80
2018-04-14T00:05:46.732Z,10.80
2018-04-14T00:08:15.180Z,10.80
2018-04-14T00:10:43.506Z,10.80
2018-04-14T00:13:11.915Z,10.80
2018-04-14T00:15:40.329Z,10.80
2018-04-14T00:18:08.715Z,10.80
2018-04-14T00:20:37.155Z,10.70
2018-04-14T00:23:05.502Z,10.80
2018-04-14T00:25:33.851Z,10.80
2018-04-14T00:28:03.013Z,10.70
2018-04-14T00:30:32.616Z,10.70
2018-04-14T00:33:00.947Z,10.70
2018-04-14T00:35:30.174Z,10.70
2018-04-14T00:37:58.579Z,10.70
2018-04-14T00:40:26.932Z,10.70
2018-04-14T00:42:55.344Z,10.60
2018-04-14T00:45:23.735Z,10.60
2018-04-14T00:47:52.144Z,10.60
2018-04-14T00:50:20.532Z,10.60
2018-04-14T00:52:49.064Z,10.60
2018-04-14T00:55:17.439Z,10.60
2018-04-14T00:57:45.853Z,10.60
2018-04-14T01:00:15.011Z,10.60
2018-04-14T01:02:43.353Z,10.60
2018-04-14T01:05:11.688Z,10.60
2018-04-14T01:07:40.844Z,10.60
2018-04-14T01:10:09.216Z,10.50
2018-04-14T01:12:37.608Z,10.50
2018-04-14T01:15:06.014Z,10.50
2018-04-14T01:17:34.381Z,10.40
2018-04-14T01:20:02.811Z,10.40
2018-04-14T01:22:31.224Z,10.40
2018-04-14T01:24:59.633Z,10.40
2018-04-14T01:27:28.787Z,10.40
2018-04-14T01:29:57.196Z,10.30
2018-04-14T01:35:00.276Z,10.30
2018-04-14T01:37:28.669Z,10.30
2018-04-14T01:39:57.029Z,10.30
2018-04-14T01:42:25.477Z,10.30
2018-04-14T01:44:53.815Z,10.30
2018-04-14T01:47:22.236Z,10.30
2018-04-14T01:49:50.595Z,10.20
2018-04-14T01:52:19.740Z,10.20
2018-04-14T01:54:48.133Z,10.20
2018-04-14T01:57:16.493Z,10.20
2018-04-14T01:59:44.870Z,10.10
2018-04-14T02:02:13.289Z,10.10
2018-04-14T02:04:42.463Z,10.20
2018-04-14T02:07:10.860Z,10.20
2018-04-14T02:09:39.247Z,10.20
2018-04-14T02:12:08.467Z,10.20
2018-04-14T02:14:36.827Z,10.20
2018-04-14T02:17:05.926Z,10.10
2018-04-14T02:19:35.053Z,10.10
2018-04-14T02:22:03.448Z,10.10
2018-04-14T02:24:31.853Z,10.00
2018-04-14T02:27:00.243Z,10.10
2018-04-14T02:29:29.419Z,10.10
2018-04-14T02:31:57.887Z,10.20
2018-04-14T02:34:26.256Z,10.20
2018-04-14T02:36:54.720Z,10.20
2018-04-14T02:39:23.076Z,10.30
2018-04-14T02:41:51.465Z,10.30
2018-04-14T02:44:19.880Z,10.30
2018-04-14T02:46:48.262Z,10.30
2018-04-14T02:49:16.676Z,10.30
2018-04-14T02:51:45.809Z,10.20
2018-04-14T02:54:14.159Z,10.20
2018-04-14T02:56:42.953Z,10.20
2018-04-14T02:59:11.340Z,10.10
2018-04-14T03:01:39.668Z,10.10
2018-04-14T03:04:08.049Z,10.10
2018-04-14T03:06:36.432Z,10.10
2018-04-14T03:09:06.713Z,10.10
2018-04-14T03:11:35.131Z,10.10
2018-04-14T03:14:03.641Z,10.10
2018-04-14T03:16:32.029Z,10.10
2018-04-14T03:19:00.375Z,10.10
2018-04-14T03:21:29.663Z,10.10
2018-04-14T03:23:58.031Z,10.00
2018-04-14T03:26:26.420Z,10.10
2018-04-14T03:28:54.849Z,10.00
2018-04-14T03:31:23.253Z,10.00
2018-04-14T03:33:51.787Z,10.00
2018-04-14T03:36:20.186Z,10.00
2018-04-14T03:38:48.594Z,10.00
2018-04-14T03:41:17.496Z,10.10
2018-04-14T03:43:45.895Z,10.10
2018-04-14T03:46:15.087Z,10.10
2018-04-14T03:48:43.710Z,10.10
2018-04-14T03:51:12.107Z,10.10
2018-04-14T03:53:40.533Z,10.10
2018-04-14T03:56:09.711Z,10.10
2018-04-14T03:58:38.113Z,10.10
2018-04-14T04:01:07.273Z,10.10
2018-04-14T04:03:35.690Z,10.10
2018-04-14T04:06:04.805Z,10.20
2018-04-14T04:08:33.233Z,10.10
2018-04-14T04:11:01.645Z,10.10
2018-04-14T04:13:30.833Z,10.20
2018-04-14T04:15:59.992Z,10.20
2018-04-14T04:18:40.397Z,10.20
2018-04-14T04:21:21.212Z,10.20
2018-04-14T04:24:01.510Z,10.20
2018-04-14T04:26:30.653Z,10.20
2018-04-14T04:28:59.035Z,10.10
2018-04-14T04:31:27.399Z,10.10
2018-04-14T04:33:55.797Z,10.10
2018-04-14T04:36:24.169Z,10.10
2018-04-14T04:38:52.596Z,10.10
2018-04-14T04:41:21.002Z,10.10
2018-04-14T04:43:49.376Z,10.10
2018-04-14T04:46:17.734Z,10.10
2018-04-14T04:48:46.958Z,10.10
2018-04-14T04:51:15.758Z,10.10
2018-04-14T04:53:44.184Z,10.10
2018-04-14T04:56:12.580Z,10.20
2018-04-14T04:58:41.777Z,10.20
2018-04-14T05:01:10.951Z,10.20
2018-04-14T05:03:39.315Z,10.10
2018-04-14T05:06:07.653Z,10.20
2018-04-14T05:08:36.202Z,10.20
2018-04-14T05:11:04.548Z,10.20
2018-04-14T05:13:32.956Z,10.20
2018-04-14T05:16:01.492Z,10.20
2018-04-14T05:18:29.856Z,10.20
2018-04-14T05:20:58.197Z,10.20
2018-04-14T05:23:26.551Z,10.30
2018-04-14T05:25:55.307Z,10.30
2018-04-14T05:28:23.709Z,10.30
2018-04-14T05:30:52.111Z,10.40
2018-04-14T05:33:20.875Z,10.50
2018-04-14T05:35:49.228Z,10.50
2018-04-14T05:38:17.572Z,10.50
2018-04-14T05:40:46.760Z,10.60
2018-04-14T05:43:15.873Z,10.70
2018-04-14T05:45:44.333Z,10.70
2018-04-14T05:48:13.447Z,10.80
2018-04-14T05:50:41.902Z,10.80
2018-04-14T05:53:11.049Z,11.00
2018-04-14T05:55:39.487Z,10.90
2018-04-14T05:58:08.644Z,11.00
2018-04-14T06:00:37.036Z,11.00
2018-04-14T06:03:05.463Z,11.10
2018-04-14T06:05:33.864Z,11.10
2018-04-14T06:08:02.329Z,11.10
2018-04-14T06:10:30.729Z,11.00
2018-04-14T06:12:59.082Z,11.00
2018-04-14T06:15:27.518Z,11.10
2018-04-14T06:17:55.892Z,11.10
2018-04-14T06:20:24.329Z,11.10
2018-04-14T06:22:52.701Z,11.20
2018-04-14T06:25:21.072Z,11.20
2018-04-14T06:27:49.489Z,11.20
2018-04-14T06:30:17.864Z,11.30
2018-04-14T06:32:46.345Z,11.20
2018-04-14T06:35:14.745Z,11.20
2018-04-14T06:37:43.139Z,11.30
2018-04-14T06:40:12.277Z,11.20
2018-04-14T06:42:40.696Z,11.20
2018-04-14T06:45:09.337Z,11.30
2018-04-14T06:47:37.761Z,11.30
2018-04-14T06:50:06.183Z,11.30
2018-04-14T06:52:34.589Z,11.20
2018-04-14T06:55:03.036Z,11.30
2018-04-14T06:57:31.438Z,11.30
2018-04-14T07:00:00.374Z,11.20
2018-04-14T07:02:28.736Z,11.20
2018-04-14T07:04:57.124Z,11.20
2018-04-14T07:07:25.579Z,11.30
2018-04-14T07:09:53.944Z,11.30
2018-04-14T07:12:22.449Z,11.30
2018-04-14T07:14:52.905Z,11.40
2018-04-14T07:17:22.131Z,11.70
2018-04-14T07:19:53.944Z,11.70
2018-04-14T07:22:24.109Z,11.90
2018-04-14T07:24:52.734Z,12.00
2018-04-14T07:27:21.124Z,12.00
2018-04-14T07:29:49.524Z,12.30
2018-04-14T07:32:18.708Z,12.40
2018-04-14T07:34:48.658Z,12.40
2018-04-14T07:37:18.808Z,12.50
2018-04-14T07:39:47.245Z,12.60
2018-04-14T07:42:15.638Z,12.80
2018-04-14T07:44:44.038Z,12.80
2018-04-14T07:47:12.405Z,12.80
2018-04-14T07:49:40.782Z,12.90
2018-04-14T07:52:09.193Z,13.10
2018-04-14T07:54:37.733Z,13.10
2018-04-14T07:57:06.129Z,13.10
2018-04-14T07:59:34.528Z,13.30
2018-04-14T08:02:02.950Z,13.30
2018-04-14T08:04:31.341Z,13.10
2018-04-14T08:06:59.749Z,13.10
2018-04-14T08:09:28.116Z,13.10
2018-04-14T08:11:56.545Z,13.20
2018-04-14T08:14:24.964Z,13.10
2018-04-14T08:16:53.375Z,13.10
2018-04-14T08:19:21.752Z,13.30
2018-04-14T08:21:50.188Z,13.30
2018-04-14T08:24:18.549Z,13.50
2018-04-14T08:26:48.180Z,13.70
2018-04-14T08:29:16.583Z,13.70
2018-04-14T08:31:44.972Z,13.70
2018-04-14T08:34:13.356Z,13.80
2018-04-14T08:36:41.754Z,13.80
2018-04-14T08:39:10.180Z,13.70
2018-04-14T08:41:38.578Z,13.70
2018-04-14T08:44:07.044Z,13.70
2018-04-14T08:46:35.449Z,13.50
2018-04-14T08:49:03.790Z,13.30
2018-04-14T08:51:32.186Z,13.40
2018-04-14T08:54:01.392Z,13.30
2018-04-14T08:56:29.790Z,13.20
2018-04-14T08:58:58.230Z,13.10
2018-04-14T09:01:26.637Z,12.80
2018-04-14T09:03:55.028Z,12.70
2018-04-14T09:06:23.449Z,12.60
2018-04-14T09:08:51.847Z,12.50
2018-04-14T09:11:20.766Z,12.40
2018-04-14T09:13:49.166Z,12.40
2018-04-14T09:16:18.325Z,12.30
2018-04-14T09:18:46.721Z,12.30
2018-04-14T09:21:15.112Z,12.40
2018-04-14T09:23:43.515Z,12.60
2018-04-14T09:26:11.933Z,12.70
2018-04-14T09:28:40.272Z,12.70
2018-04-14T09:31:08.731Z,12.70
2018-04-14T09:33:37.875Z,13.10
2018-04-14T09:36:06.281Z,13.10
2018-04-14T09:38:35.504Z,13.00
2018-04-14T09:41:04.684Z,13.10
2018-04-14T09:43:33.057Z,13.10
2018-04-14T09:46:01.508Z,13.30
2018-04-14T09:48:29.913Z,13.30
2018-04-14T09:50:58.315Z,13.40
2018-04-14T09:53:26.647Z,13.50
2018-04-14T09:55:55.054Z,13.50
2018-04-14T09:58:23.419Z,13.30
2018-04-14T10:00:57.421Z,13.50
2018-04-14T10:03:25.877Z,13.40
2018-04-14T10:05:54.255Z,13.50
2018-04-14T10:08:22.708Z,13.50
2018-04-14T10:10:51.868Z,13.40
2018-04-14T10:13:20.343Z,13.40
2018-04-14T10:15:48.691Z,13.40
2018-04-14T10:18:17.092Z,13.40
2018-04-14T10:20:45.506Z,13.50
2018-04-14T10:23:14.698Z,13.50
2018-04-14T10:25:43.271Z,13.40
2018-04-14T10:28:11.651Z,13.50
2018-04-14T10:30:40.067Z,13.70
2018-04-14T10:33:08.433Z,13.70
2018-04-14T10:35:37.536Z,13.90
2018-04-14T10:38:05.941Z,13.90
2018-04-14T10:40:34.741Z,14.10
2018-04-14T10:43:03.138Z,14.10
2018-04-14T10:45:31.533Z,14.10
2018-04-14T10:47:59.956Z,14.10
2018-04-14T10:50:28.392Z,14.30
2018-04-14T10:52:57.170Z,14.50
2018-04-14T10:55:25.508Z,14.70
2018-04-14T10:57:53.901Z,14.60
2018-04-14T11:00:22.325Z,14.80
2018-04-14T11:02:51.429Z,14.90
2018-04-14T11:05:20.623Z,15.10
2018-04-14T11:07:49.725Z,15.00
2018-04-14T11:10:18.909Z,15.10
2018-04-14T11:12:48.074Z,15.10
2018-04-14T11:15:16.510Z,15.10
2018-04-14T11:17:44.907Z,15.20
2018-04-14T11:20:13.313Z,15.30
2018-04-14T11:22:42.168Z,15.40
2018-04-14T11:25:10.511Z,15.20
2018-04-14T11:27:39.620Z,15.60
2018-04-14T11:30:08.453Z,15.60
2018-04-14T11:32:36.823Z,15.80
2018-04-14T11:35:05.176Z,15.60
2018-04-14T11:37:33.618Z,15.40
2018-04-14T11:40:02.814Z,15.90
2018-04-14T11:42:31.219Z,15.80
2018-04-14T11:44:59.609Z,15.80
2018-04-14T11:47:28.003Z,15.80
2018-04-14T11:49:56.452Z,15.80
2018-04-14T11:52:24.847Z,16.00
2018-04-14T11:54:53.740Z,16.20
2018-04-14T11:57:22.078Z,16.30
2018-04-14T11:59:51.253Z,16.50
2018-04-14T12:02:19.651Z,16.50
2018-04-14T12:04:48.380Z,16.50
2018-04-14T12:07:16.787Z,16.70
2018-04-14T12:09:45.162Z,16.80
2018-04-14T12:12:14.462Z,16.60
2018-04-14T12:14:42.863Z,16.60
2018-04-14T12:17:11.201Z,16.50
2018-04-14T12:19:39.628Z,16.50
2018-04-14T12:22:08.790Z,17.00
2018-04-14T12:24:37.294Z,16.90
2018-04-14T12:27:05.652Z,16.70
2018-04-14T12:29:34.049Z,16.60
2018-04-14T12:32:02.465Z,16.80
2018-04-14T12:34:30.877Z,16.70
2018-04-14T12:36:59.565Z,16.90
2018-04-14T12:39:27.992Z,17.10
2018-04-14T12:41:57.137Z,17.00
2018-04-14T12:44:25.525Z,17.00
2018-04-14T12:46:53.951Z,17.30
2018-04-14T12:49:22.417Z,17.20
2018-04-14T12:51:51.577Z,17.20
2018-04-14T12:54:19.912Z,17.10
2018-04-14T12:56:48.306Z,17.50
2018-04-14T12:59:16.708Z,17.70
2018-04-14T13:01:45.116Z,17.80
2018-04-14T13:04:13.518Z,17.80
2018-04-14T13:06:42.644Z,17.60
2018-04-14T13:09:11.167Z,17.60
2018-04-14T13:11:39.565Z,17.60
2018-04-14T13:14:08.725Z,17.60
2018-04-14T13:16:37.180Z,17.60
2018-04-14T13:19:05.581Z,17.30
2018-04-14T13:21:34.756Z,16.80
2018-04-14T13:24:03.178Z,16.80
2018-04-14T13:26:31.576Z,16.80
2018-04-14T13:29:00.882Z,16.80
2018-04-14T13:31:29.253Z,16.80
2018-04-14T13:33:58.391Z,16.80
2018-04-14T13:36:26.757Z,16.80
2018-04-14T13:38:55.642Z,17.10
2018-04-14T13:41:24.038Z,17.40
2018-04-14T13:43:52.401Z,17.50
2018-04-14T13:46:20.789Z,17.40
2018-04-14T13:48:49.123Z,17.00
2018-04-14T13:51:18.715Z,16.70
2018-04-14T13:53:47.064Z,16.70
2018-04-14T13:56:15.404Z,16.70
2018-04-14T13:58:43.810Z,16.70
2018-04-14T14:01:12.146Z,17.00
2018-04-14T14:03:41.300Z,17.40
2018-04-14T14:06:09.699Z,17.50
2018-04-14T14:08:38.250Z,17.70
2018-04-14T14:11:06.661Z,17.50
2018-04-14T14:13:35.006Z,17.50
2018-04-14T14:16:03.428Z,17.70
2018-04-14T14:18:32.616Z,17.10
2018-04-14T14:21:01.078Z,17.10
2018-04-14T14:23:29.502Z,17.00
2018-04-14T14:25:57.872Z,16.70
2018-04-14T14:28:27.380Z,16.70
2018-04-14T14:30:55.772Z,16.70
2018-04-14T14:33:24.141Z,16.80
2018-04-14T14:35:52.528Z,16.90
2018-04-14T14:38:20.894Z,16.80
2018-04-14T14:40:49.316Z,16.70
2018-04-14T14:43:17.692Z,16.80
2018-04-14T14:45:46.217Z,17.10
2018-04-14T14:48:15.353Z,17.10
2018-04-14T14:50:43.727Z,17.10
2018-04-14T14:53:12.152Z,17.20
2018-04-14T14:55:40.547Z,16.90
2018-04-14T14:58:09.752Z,16.90
2018-04-14T15:00:38.886Z,16.80
2018-04-14T15:03:07.291Z,16.80
2018-04-14T15:05:35.798Z,16.50
2018-04-14T15:08:04.961Z,16.60
2018-04-14T15:10:33.311Z,16.60
2018-04-14T15:13:02.161Z,16.60
2018-04-14T15:15:31.328Z,16.90
2018-04-14T15:17:59.724Z,16.90
2018-04-14T15:20:28.176Z,16.80
2018-04-14T15:22:56.503Z,16.80
2018-04-14T15:25:25.708Z,16.60
2018-04-14T15:27:54.333Z,16.60
2018-04-14T15:30:22.712Z,16.40
2018-04-14T15:32:51.076Z,16.20
2018-04-14T15:35:19.539Z,16.20
2018-04-14T15:37:47.929Z,16.40
2018-04-14T15:40:16.329Z,16.20
2018-04-14T15:42:44.962Z,15.90
2018-04-14T15:45:13.355Z,15.90
2018-04-14T15:47:41.767Z,15.70
2018-04-14T15:50:10.172Z,15.80
2018-04-14T15:52:38.564Z,15.90
2018-04-14T15:55:07.745Z,15.80
2018-04-14T15:57:36.143Z,15.80
2018-04-14T16:00:05.336Z,15.70
2018-04-14T16:02:34.500Z,15.50
2018-04-14T16:05:02.873Z,15.50
2018-04-14T16:07:31.236Z,15.40
2018-04-14T16:09:59.660Z,15.30
2018-04-14T16:12:28.848Z,15.30
2018-04-14T16:14:57.224Z,15.30
2018-04-14T16:17:25.649Z,15.30
2018-04-14T16:19:54.054Z,15.20
2018-04-14T16:22:22.482Z,15.30
2018-04-14T16:24:51.676Z,15.30
2018-04-14T16:27:20.883Z,15.40
2018-04-14T16:29:49.322Z,15.40
2018-04-14T16:32:17.806Z,15.50
2018-04-14T16:34:46.210Z,15.40
2018-04-14T16:37:15.373Z,15.10
2018-04-14T16:39:43.736Z,15.10
2018-04-14T16:42:12.133Z,14.80
2018-04-14T16:44:40.529Z,14.80
2018-04-14T16:47:09.047Z,15.10
2018-04-14T16:49:37.440Z,15.00
2018-04-14T16:52:05.823Z,15.10
2018-04-14T16:54:34.248Z,15.00
2018-04-14T16:57:03.358Z,14.90
2018-04-14T16:59:32.559Z,14.90
2018-04-14T17:02:00.961Z,14.90
2018-04-14T17:04:29.366Z,14.60
2018-04-14T17:06:57.756Z,14.50
2018-04-14T17:09:26.140Z,14.50
2018-04-14T17:11:54.514Z,14.20
2018-04-14T17:14:22.877Z,14.10
2018-04-14T17:16:51.293Z,13.90
2018-04-14T17:19:20.397Z,13.70
2018-04-14T17:21:49.587Z,13.60
2018-04-14T17:24:18.784Z,13.50
2018-04-14T17:26:47.941Z,13.60
2018-04-14T17:29:16.343Z,13.60
2018-04-14T17:31:44.770Z,13.60
2018-04-14T17:34:13.168Z,13.50
2018-04-14T17:36:42.070Z,13.40
2018-04-14T17:39:10.444Z,13.40
2018-04-14T17:41:38.840Z,13.20
2018-04-14T17:44:07.265Z,13.10
2018-04-14T17:46:35.629Z,12.90
2018-04-14T17:49:04.768Z,12.60
2018-04-14T17:51:33.279Z,12.60
2018-04-14T17:54:01.684Z,12.50
2018-04-14T17:56:30.794Z,12.30
2018-04-14T17:58:59.231Z,12.30
2018-04-14T18:01:27.629Z,12.20
2018-04-14T18:03:57.134Z,12.10
2018-04-14T18:06:26.301Z,12.00
2018-04-14T18:08:54.709Z,12.00
2018-04-14T18:11:23.893Z,11.80
2018-04-14T18:13:52.231Z,11.70
2018-04-14T18:16:20.652Z,11.60
2018-04-14T18:18:49.789Z,11.30
2018-04-14T18:21:18.288Z,11.30
2018-04-14T18:23:46.689Z,11.20
2018-04-14T18:26:15.084Z,11.10
2018-04-14T18:28:43.432Z,10.90
2018-04-14T18:31:11.773Z,10.80
2018-04-14T18:33:40.196Z,10.70
2018-04-14T18:36:08.593Z,10.60
2018-04-14T18:38:37.357Z,10.50
2018-04-14T18:41:05.747Z,10.40
2018-04-14T18:43:34.149Z,10.30
2018-04-14T18:46:03.306Z,10.20
2018-04-14T18:48:31.649Z,10.10
2018-04-14T18:51:00.115Z,10.10
2018-04-14T18:53:28.515Z,10.10
2018-04-14T18:55:56.904Z,10.10
2018-04-14T18:58:25.426Z,10.00
2018-04-14T19:00:53.770Z,10.00
2018-04-14T19:03:22.104Z,9.90
2018-04-14T19:05:51.297Z,9.90
2018-04-14T19:08:19.665Z,9.90
2018-04-14T19:10:48.803Z,9.90
2018-04-14T19:13:17.197Z,9.90
2018-04-14T19:15:46.526Z,10.00
2018-04-14T19:18:14.920Z,10.00
2018-04-14T19:20:44.151Z,9.90
2018-04-14T19:23:12.550Z,9.90
2018-04-14T19:25:40.948Z,9.90
2018-04-14T19:28:09.343Z,9.90
2018-04-14T19:30:37.731Z,9.90
2018-04-14T19:33:06.976Z,9.80
2018-04-14T19:35:35.368Z,9.80
2018-04-14T19:38:03.763Z,9.70
2018-04-14T19:40:32.162Z,9.70
2018-04-14T19:43:01.322Z,9.60
2018-04-14T19:45:29.851Z,9.60
2018-04-14T19:47:58.995Z,9.50
2018-04-14T19:50:27.365Z,9.40
2018-04-14T19:52:55.815Z,9.40
2018-04-14T19:55:24.201Z,9.40
2018-04-14T19:57:53.052Z,9.50
2018-04-14T20:00:21.384Z,9.40
2018-04-14T20:02:49.722Z,9.30
2018-04-14T20:05:18.982Z,9.30
2018-04-14T20:07:48.140Z,9.30
2018-04-14T20:10:16.534Z,9.30
2018-04-14T20:12:45.365Z,9.20
2018-04-14T20:15:13.747Z,9.10
2018-04-14T20:17:42.140Z,9.10
2018-04-14T20:20:11.323Z,9.00
2018-04-14T20:22:39.712Z,9.00
2018-04-14T20:25:08.942Z,9.00
2018-04-14T20:27:37.594Z,9.00
2018-04-14T20:30:06.749Z,9.10
2018-04-14T20:32:35.116Z,9.10
2018-04-14T20:35:03.630Z,9.00
2018-04-14T20:37:32.034Z,9.00
2018-04-14T20:40:01.191Z,9.10
2018-04-14T20:42:29.608Z,9.10
2018-04-14T20:44:58.744Z,9.30
2018-04-14T20:47:27.105Z,9.30
2018-04-14T20:49:55.464Z,9.20
2018-04-14T20:52:24.598Z,9.10
2018-04-14T20:54:52.984Z,9.00
2018-04-14T20:57:21.381Z,9.00
2018-04-14T20:59:49.751Z,8.90
2018-04-14T21:02:18.122Z,8.80
2018-04-14T21:04:46.499Z,8.80
2018-04-14T21:07:14.917Z,8.80
2018-04-14T21:09:44.075Z,8.60
2018-04-14T21:12:12.494Z,8.60
2018-04-14T21:14:41.621Z,8.50
2018-04-14T21:17:09.953Z,8.50
2018-04-14T21:19:38.336Z,8.40
2018-04-14T21:22:07.436Z,8.50
2018-04-14T21:24:36.645Z,8.40
2018-04-14T21:27:05.040Z,8.40
2018-04-14T21:29:33.412Z,8.40
2018-04-14T21:32:01.808Z,8.40
2018-04-14T21:34:30.220Z,8.30
2018-04-14T21:36:58.556Z,8.30
2018-04-14T21:39:26.949Z,8.30
2018-04-14T21:41:55.289Z,8.20
2018-04-14T21:44:23.699Z,8.20
2018-04-14T21:46:52.084Z,8.20
2018-04-14T21:49:20.486Z,8.20
2018-04-14T21:51:48.828Z,8.10
2018-04-14T21:54:17.181Z,8.10
2018-04-14T21:56:45.634Z,8.00
2018-04-14T21:59:14.049Z,8.00
2018-04-14T22:01:42.413Z,8.00
2018-04-14T22:04:12.040Z,7.90
2018-04-14T22:06:40.429Z,7.90
2018-04-14T22:09:08.775Z,7.90
2018-04-14T22:11:38.117Z,7.80
2018-04-14T22:14:06.453Z,7.80
2018-04-14T22:16:35.613Z,7.80
2018-04-14T22:19:04.874Z,7.90
2018-04-14T22:21:33.228Z,7.90
2018-04-14T22:24:01.665Z,7.90
2018-04-14T22:26:30.061Z,7.90
2018-04-14T22:28:58.462Z,8.00
2018-04-14T22:31:26.913Z,8.00
2018-04-14T22:33:55.245Z,8.10
2018-04-14T22:36:23.618Z,8.10
2018-04-14T22:38:52.005Z,8.20
2018-04-14T22:41:20.401Z,8.20
2018-04-14T22:43:48.867Z,8.20
2018-04-14T22:46:17.290Z,8.20
2018-04-14T22:48:45.684Z,8.10
2018-04-14T22:51:14.848Z,8.00
2018-04-14T22:53:43.204Z,8.00
2018-04-14T22:56:11.611Z,7.90
2018-04-14T22:58:40.029Z,7.80
2018-04-14T23:01:08.417Z,7.80
2018-04-14T23:03:36.872Z,7.70
2018-04-14T23:06:05.963Z,7.60
2018-04-14T23:08:35.091Z,7.50
2018-04-14T23:11:03.509Z,7.50
2018-04-14T23:13:31.873Z,7.40
2018-04-14T23:16:00.721Z,7.40
2018-04-14T23:18:29.110Z,7.40
2018-04-14T23:20:57.437Z,7.40
2018-04-14T23:23:25.800Z,7.30
2018-04-14T23:25:54.197Z,7.30
2018-04-14T23:28:22.556Z,7.20
2018-04-14T23:30:50.892Z,7.30
2018-04-14T23:33:19.409Z,7.20
2018-04-14T23:35:47.795Z,7.10
2018-04-14T23:38:16.188Z,7.10
2018-04-14T23:40:44.641Z,7.10
2018-04-14T23:43:12.976Z,7.10
2018-04-14T23:45:41.368Z,7.10
2018-04-14T23:48:09.797Z,7.10
2018-04-14T23:50:38.193Z,7.10
2018-04-14T23:53:07.312Z,7.10
2018-04-14T23:55:35.700Z,7.10
2018-04-14T23:58:04.208Z,7.10
